Terminal Aerodrome Forecast
Issued by NWS

Home | Current Version | Previous Version | Graphics & Text | Print | Product List | Glossary On
Versions: 1 2 3 4 5 6 7 8 9 10 11 12 13 14 15 16 17
939
FTUS43 KMPX 062324
TAFRNH
TAF
KRNH 062324Z 0700/0724 24017G25KT P6SM OVC030
     FM071200 27019G26KT P6SM BKN030 OVC050=

USA.gov is the U.S. government's official web portal to all federal, state and local government web resources and services.